sensor_id;sensor_type;location;lat;lon;timestamp;pressure;altitude;pressure_sealevel;temperature;humidity
32109;BME280;18624;50.042;8.436;2023-02-02T00:00:20;100910.75;;;6.27;100.00
32109;BME280;18624;50.042;8.436;2023-02-02T00:02:46;100912.69;;;6.26;100.00
32109;BME280;18624;50.042;8.436;2023-02-02T00:05:13;100906.06;;;6.27;100.00
32109;BME280;18624;50.042;8.436;2023-02-02T00:07:39;100908.41;;;6.29;100.00
32109;BME280;18624;50.042;8.436;2023-02-02T00:10:06;100902.97;;;6.29;100.00
32109;BME280;18624;50.042;8.436;2023-02-02T00:12:32;100893.63;;;6.23;100.00
32109;BME280;18624;50.042;8.436;2023-02-02T00:14:59;100901.00;;;6.29;100.00
32109;BME280;18624;50.042;8.436;2023-02-02T00:17:25;100901.00;;;6.29;100.00
32109;BME280;18624;50.042;8.436;2023-02-02T00:19:52;100890.91;;;6.23;100.00
32109;BME280;18624;50.042;8.436;2023-02-02T00:22:19;100905.31;;;6.30;100.00
32109;BME280;18624;50.042;8.436;2023-02-02T00:24:45;100900.22;;;6.29;100.00
32109;BME280;18624;50.042;8.436;2023-02-02T00:27:12;100903.72;;;6.29;100.00
32109;BME280;18624;50.042;8.436;2023-02-02T00:29:38;100898.28;;;6.29;100.00
32109;BME280;18624;50.042;8.436;2023-02-02T00:32:05;100902.59;;;6.30;100.00
32109;BME280;18624;50.042;8.436;2023-02-02T00:34:32;100904.50;;;6.30;100.00
32109;BME280;18624;50.042;8.436;2023-02-02T00:36:58;100905.31;;;6.30;100.00
32109;BME280;18624;50.042;8.436;2023-02-02T00:39:25;100897.50;;;6.25;100.00
32109;BME280;18624;50.042;8.436;2023-02-02T00:41:53;100905.28;;;6.34;100.00
32109;BME280;18624;50.042;8.436;2023-02-02T00:44:19;100910.75;;;6.34;100.00
32109;BME280;18624;50.042;8.436;2023-02-02T00:47:04;100902.97;;;6.36;100.00
32109;BME280;18624;50.042;8.436;2023-02-02T00:49:31;100908.03;;;6.34;100.00
32109;BME280;18624;50.042;8.436;2023-02-02T00:51:57;100912.31;;;6.39;100.00
32109;BME280;18624;50.042;8.436;2023-02-02T00:54:25;100915.81;;;6.39;100.00
32109;BME280;18624;50.042;8.436;2023-02-02T00:56:52;100908.81;;;6.31;100.00
32109;BME280;18624;50.042;8.436;2023-02-02T00:59:18;100926.31;;;6.37;100.00
32109;BME280;18624;50.042;8.436;2023-02-02T01:01:45;100925.16;;;6.38;100.00
32109;BME280;18624;50.042;8.436;2023-02-02T01:04:11;100929.41;;;6.39;100.00
32109;BME280;18624;50.042;8.436;2023-02-02T01:06:38;100928.63;;;6.39;100.00
32109;BME280;18624;50.042;8.436;2023-02-02T01:09:06;100933.31;;;6.38;100.00
32109;BME280;18624;50.042;8.436;2023-02-02T01:11:33;100934.88;;;6.36;100.00
32109;BME280;18624;50.042;8.436;2023-02-02T01:13:59;100925.56;;;6.40;100.00
32109;BME280;18624;50.042;8.436;2023-02-02T01:16:26;100892.81;;;6.12;100.00
32109;BME280;18624;50.042;8.436;2023-02-02T01:18:53;100915.41;;;6.26;100.00
32109;BME280;18624;50.042;8.436;2023-02-02T01:21:19;100923.63;;;6.44;100.00
32109;BME280;18624;50.042;8.436;2023-02-02T01:23:46;100934.09;;;6.42;100.00
32109;BME280;18624;50.042;8.436;2023-02-02T01:26:14;100933.31;;;6.42;100.00
32109;BME280;18624;50.042;8.436;2023-02-02T01:28:41;100937.59;;;6.43;100.00
32109;BME280;18624;50.042;8.436;2023-02-02T01:31:13;100943.81;;;6.43;100.00
32109;BME280;18624;50.042;8.436;2023-02-02T01:33:40;100903.72;;;6.19;100.00
32109;BME280;18624;50.042;8.436;2023-02-02T01:36:10;100952.41;;;6.45;100.00
32109;BME280;18624;50.042;8.436;2023-02-02T01:38:38;100945.41;;;6.44;100.00
32109;BME280;18624;50.042;8.436;2023-02-02T01:41:05;100961.34;;;6.42;100.00
32109;BME280;18624;50.042;8.436;2023-02-02T01:44:00;100951.22;;;6.43;100.00
32109;BME280;18624;50.042;8.436;2023-02-02T01:49:10;100943.84;;;6.40;100.00
32109;BME280;18624;50.042;8.436;2023-02-02T01:51:49;100962.50;;;6.45;100.00
32109;BME280;18624;50.042;8.436;2023-02-02T01:54:23;100962.50;;;6.45;100.00
32109;BME280;18624;50.042;8.436;2023-02-02T01:57:00;100820.69;;;5.48;100.00
32109;BME280;18624;50.042;8.436;2023-02-02T01:59:30;100969.50;;;6.42;100.00
32109;BME280;18624;50.042;8.436;2023-02-02T02:01:57;100950.44;;;6.35;100.00
32109;BME280;18624;50.042;8.436;2023-02-02T02:04:25;100963.69;;;6.40;100.00
32109;BME280;18624;50.042;8.436;2023-02-02T02:06:52;100878.31;;;5.90;100.00
32109;BME280;18624;50.042;8.436;2023-02-02T02:09:19;100961.34;;;6.42;100.00
32109;BME280;18624;50.042;8.436;2023-02-02T02:11:46;100958.22;;;6.44;100.00
32109;BME280;18624;50.042;8.436;2023-02-02T02:14:13;100945.75;;;6.39;100.00
32109;BME280;18624;50.042;8.436;2023-02-02T02:17:13;100955.13;;;6.49;100.00
32109;BME280;18624;50.042;8.436;2023-02-02T02:34:44;100951.25;;;6.50;100.00
32109;BME280;18624;50.042;8.436;2023-02-02T02:40:30;100962.13;;;6.46;100.00
32109;BME280;18624;50.042;8.436;2023-02-02T02:43:02;100956.69;;;6.46;100.00
32109;BME280;18624;50.042;8.436;2023-02-02T02:45:33;100954.34;;;6.45;100.00
32109;BME280;18624;50.042;8.436;2023-02-02T02:48:01;100954.72;;;6.47;100.00
32109;BME280;18624;50.042;8.436;2023-02-02T02:50:29;100944.19;;;6.34;100.00
32109;BME280;18624;50.042;8.436;2023-02-02T02:53:02;100946.97;;;6.45;100.00
32109;BME280;18624;50.042;8.436;2023-02-02T02:55:38;100948.91;;;6.45;100.00
32109;BME280;18624;50.042;8.436;2023-02-02T02:58:16;100939.97;;;6.44;100.00
32109;BME280;18624;50.042;8.436;2023-02-02T03:00:58;100945.38;;;6.48;100.00
32109;BME280;18624;50.042;8.436;2023-02-02T03:03:34;100919.69;;;6.27;100.00
32109;BME280;18624;50.042;8.436;2023-02-02T03:06:23;100954.34;;;6.45;100.00
32109;BME280;18624;50.042;8.436;2023-02-02T03:08:54;100953.56;;;6.44;100.00
32109;BME280;18624;50.042;8.436;2023-02-02T03:11:25;100975.72;;;6.43;100.00
32109;BME280;18624;50.042;8.436;2023-02-02T03:13:51;100954.72;;;6.43;100.00
32109;BME280;18624;50.042;8.436;2023-02-02T03:16:18;100952.00;;;6.43;100.00
32109;BME280;18624;50.042;8.436;2023-02-02T03:18:44;100952.00;;;6.43;100.00
32109;BME280;18624;50.042;8.436;2023-02-02T03:21:11;100955.50;;;6.44;100.00
32109;BME280;18624;50.042;8.436;2023-02-02T03:23:37;100697.72;;;4.75;100.00
32109;BME280;18624;50.042;8.436;2023-02-02T03:26:05;100957.44;;;6.43;100.00
32109;BME280;18624;50.042;8.436;2023-02-02T03:28:31;100958.59;;;6.42;100.00
32109;BME280;18624;50.042;8.436;2023-02-02T03:30:59;100821.88;;;5.58;100.00
32109;BME280;18624;50.042;8.436;2023-02-02T03:33:27;100957.44;;;6.47;100.00
32109;BME280;18624;50.042;8.436;2023-02-02T03:35:54;100950.84;;;6.44;100.00
32109;BME280;18624;50.042;8.436;2023-02-02T03:38:20;100958.22;;;6.44;100.00
32109;BME280;18624;50.042;8.436;2023-02-02T03:40:47;100952.00;;;6.47;100.00
32109;BME280;18624;50.042;8.436;2023-02-02T03:43:18;100959.41;;;6.46;100.00
32109;BME280;18624;50.042;8.436;2023-02-02T03:45:45;100957.06;;;6.48;100.00
32109;BME280;18624;50.042;8.436;2023-02-02T03:48:11;100953.19;;;6.49;100.00
32109;BME280;18624;50.042;8.436;2023-02-02T03:50:38;100962.13;;;6.50;100.00
32109;BME280;18624;50.042;8.436;2023-02-02T03:53:04;100959.00;;;6.51;100.00
32109;BME280;18624;50.042;8.436;2023-02-02T03:55:30;100950.44;;;6.46;100.00
32109;BME280;18624;50.042;8.436;2023-02-02T03:57:57;100957.47;;;6.50;100.00
32109;BME280;18624;50.042;8.436;2023-02-02T04:00:23;100945.00;;;6.46;100.00
32109;BME280;18624;50.042;8.436;2023-02-02T04:02:50;100959.81;;;6.55;100.00
32109;BME280;18624;50.042;8.436;2023-02-02T04:05:16;100961.00;;;6.58;100.00
32109;BME280;18624;50.042;8.436;2023-02-02T04:07:42;100966.81;;;6.60;100.00
32109;BME280;18624;50.042;8.436;2023-02-02T04:10:09;100953.19;;;6.56;100.00
32109;BME280;18624;50.042;8.436;2023-02-02T04:12:36;100959.41;;;6.57;100.00
32109;BME280;18624;50.042;8.436;2023-02-02T04:15:02;100967.22;;;6.58;100.00
32109;BME280;18624;50.042;8.436;2023-02-02T04:17:29;100970.72;;;6.63;100.00
32109;BME280;18624;50.042;8.436;2023-02-02T04:19:55;100975.00;;;6.64;100.00
32109;BME280;18624;50.042;8.436;2023-02-02T04:22:24;100972.66;;;6.62;100.00
32109;BME280;18624;50.042;8.436;2023-02-02T04:24:51;100977.31;;;6.62;100.00
32109;BME280;18624;50.042;8.436;2023-02-02T04:27:18;100978.47;;;6.60;100.00
32109;BME280;18624;50.042;8.436;2023-02-02T04:29:45;100971.88;;;6.62;100.00
32109;BME280;18624;50.042;8.436;2023-02-02T04:32:13;100978.50;;;6.64;100.00
32109;BME280;18624;50.042;8.436;2023-02-02T04:34:41;100982.00;;;6.65;100.00
32109;BME280;18624;50.042;8.436;2023-02-02T04:37:07;100981.59;;;6.66;100.00
32109;BME280;18624;50.042;8.436;2023-02-02T04:39:34;100988.63;;;6.67;100.00
32109;BME280;18624;50.042;8.436;2023-02-02T04:42:00;100982.41;;;6.63;100.00
32109;BME280;18624;50.042;8.436;2023-02-02T04:44:27;100990.56;;;6.70;100.00
32109;BME280;18624;50.042;8.436;2023-02-02T04:46:53;100987.06;;;6.63;100.00
32109;BME280;18624;50.042;8.436;2023-02-02T04:49:20;100995.63;;;6.68;100.00
32109;BME280;18624;50.042;8.436;2023-02-02T04:51:47;101004.97;;;6.67;100.00
32109;BME280;18624;50.042;8.436;2023-02-02T04:54:13;101006.94;;;6.67;100.00
32109;BME280;18624;50.042;8.436;2023-02-02T04:56:40;101011.19;;;6.64;100.00
32109;BME280;18624;50.042;8.436;2023-02-02T04:59:06;101009.63;;;6.63;100.00
32109;BME280;18624;50.042;8.436;2023-02-02T05:01:32;101007.69;;;6.64;100.00
32109;BME280;18624;50.042;8.436;2023-02-02T05:03:59;101011.97;;;6.65;100.00
32109;BME280;18624;50.042;8.436;2023-02-02T05:06:25;101011.19;;;6.64;100.00
32109;BME280;18624;50.042;8.436;2023-02-02T05:08:52;101015.09;;;6.67;100.00
32109;BME280;18624;50.042;8.436;2023-02-02T05:11:20;101000.25;;;6.57;100.00
32109;BME280;18624;50.042;8.436;2023-02-02T05:13:49;101014.28;;;6.66;100.00
32109;BME280;18624;50.042;8.436;2023-02-02T05:16:16;101017.81;;;6.67;100.00
32109;BME280;18624;50.042;8.436;2023-02-02T05:18:50;101003.78;;;6.57;100.00
32109;BME280;18624;50.042;8.436;2023-02-02T05:21:18;101016.63;;;6.60;100.00
32109;BME280;18624;50.042;8.436;2023-02-02T05:23:45;101032.97;;;6.64;100.00
32109;BME280;18624;50.042;8.436;2023-02-02T05:26:18;101027.94;;;6.63;100.00
32109;BME280;18624;50.042;8.436;2023-02-02T05:28:46;101024.78;;;6.60;100.00
32109;BME280;18624;50.042;8.436;2023-02-02T05:31:13;101030.66;;;6.63;100.00
32109;BME280;18624;50.042;8.436;2023-02-02T05:33:40;101022.47;;;6.59;100.00
32109;BME280;18624;50.042;8.436;2023-02-02T05:36:06;101036.47;;;6.61;100.00
32109;BME280;18624;50.042;8.436;2023-02-02T05:38:33;101039.97;;;6.62;100.00
32109;BME280;18624;50.042;8.436;2023-02-02T05:41:00;101022.84;;;6.57;100.00
32109;BME280;18624;50.042;8.436;2023-02-02T05:43:28;101036.09;;;6.66;100.00
32109;BME280;18624;50.042;8.436;2023-02-02T05:45:55;101041.16;;;6.64;100.00
32109;BME280;18624;50.042;8.436;2023-02-02T05:48:21;101033.38;;;6.63;100.00
32109;BME280;18624;50.042;8.436;2023-02-02T05:51:19;101036.47;;;6.61;100.00
32109;BME280;18624;50.042;8.436;2023-02-02T05:53:47;101040.78;;;6.62;100.00
32109;BME280;18624;50.042;8.436;2023-02-02T05:56:13;101040.34;;;6.60;100.00
32109;BME280;18624;50.042;8.436;2023-02-02T05:58:42;101044.28;;;6.63;100.00
32109;BME280;18624;50.042;8.436;2023-02-02T06:01:09;101043.84;;;6.60;100.00
32109;BME280;18624;50.042;8.436;2023-02-02T06:03:36;101035.69;;;6.60;100.00
32109;BME280;18624;50.042;8.436;2023-02-02T06:06:02;101035.31;;;6.62;100.00
32109;BME280;18624;50.042;8.436;2023-02-02T06:08:32;101022.44;;;6.55;100.00
32109;BME280;18624;50.042;8.436;2023-02-02T06:10:58;101027.50;;;6.50;100.00
32109;BME280;18624;50.042;8.436;2023-02-02T06:13:25;101047.00;;;6.63;100.00
32109;BME280;18624;50.042;8.436;2023-02-02T06:15:51;101041.53;;;6.63;100.00
32109;BME280;18624;50.042;8.436;2023-02-02T06:18:17;101049.31;;;6.60;100.00
32109;BME280;18624;50.042;8.436;2023-02-02T06:20:44;101020.06;;;6.40;100.00
32109;BME280;18624;50.042;8.436;2023-02-02T06:23:12;101053.59;;;6.62;100.00
32109;BME280;18624;50.042;8.436;2023-02-02T06:25:38;101050.84;;;6.62;100.00
32109;BME280;18624;50.042;8.436;2023-02-02T06:28:04;101048.94;;;6.62;100.00
32109;BME280;18624;50.042;8.436;2023-02-02T06:30:31;101045.41;;;6.62;100.00
32109;BME280;18624;50.042;8.436;2023-02-02T06:32:58;101054.75;;;6.60;100.00
32109;BME280;18624;50.042;8.436;2023-02-02T06:35:25;101048.53;;;6.60;100.00
32109;BME280;18624;50.042;8.436;2023-02-02T06:37:52;101045.44;;;6.58;100.00
32109;BME280;18624;50.042;8.436;2023-02-02T06:40:19;101046.97;;;6.59;100.00
32109;BME280;18624;50.042;8.436;2023-02-02T06:42:45;101044.66;;;6.57;100.00
32109;BME280;18624;50.042;8.436;2023-02-02T06:45:11;101053.59;;;6.58;100.00
32109;BME280;18624;50.042;8.436;2023-02-02T06:47:38;101044.25;;;6.59;100.00
32109;BME280;18624;50.042;8.436;2023-02-02T06:50:04;101038.41;;;6.57;100.00
32109;BME280;18624;50.042;8.436;2023-02-02T06:52:31;101060.22;;;6.64;100.00
32109;BME280;18624;50.042;8.436;2023-02-02T06:54:58;101052.44;;;6.63;100.00
32109;BME280;18624;50.042;8.436;2023-02-02T06:57:24;101062.94;;;6.64;100.00
32109;BME280;18624;50.042;8.436;2023-02-02T06:59:50;101045.81;;;6.60;100.00
32109;BME280;18624;50.042;8.436;2023-02-02T07:02:17;101045.44;;;6.65;100.00
32109;BME280;18624;50.042;8.436;2023-02-02T07:04:43;101044.66;;;6.65;100.00
32109;BME280;18624;50.042;8.436;2023-02-02T07:07:10;101048.56;;;6.67;100.00
32109;BME280;18624;50.042;8.436;2023-02-02T07:09:36;101050.13;;;6.68;100.00
32109;BME280;18624;50.042;8.436;2023-02-02T07:12:03;101048.56;;;6.67;100.00
32109;BME280;18624;50.042;8.436;2023-02-02T07:14:29;101042.69;;;6.65;100.00
32109;BME280;18624;50.042;8.436;2023-02-02T07:16:55;101045.84;;;6.67;100.00
32109;BME280;18624;50.042;8.436;2023-02-02T07:19:22;101050.50;;;6.70;100.00
32109;BME280;18624;50.042;8.436;2023-02-02T07:21:48;101053.63;;;6.72;100.00
32109;BME280;18624;50.042;8.436;2023-02-02T07:24:15;101058.69;;;6.74;100.00
32109;BME280;18624;50.042;8.436;2023-02-02T07:26:41;100997.09;;;6.33;100.00
32109;BME280;18624;50.042;8.436;2023-02-02T07:29:11;101059.06;;;6.72;100.00
32109;BME280;18624;50.042;8.436;2023-02-02T07:31:38;101045.41;;;6.62;100.00
32109;BME280;18624;50.042;8.436;2023-02-02T07:34:05;101073.88;;;6.75;100.00
32109;BME280;18624;50.042;8.436;2023-02-02T07:36:32;101078.94;;;6.73;100.00
32109;BME280;18624;50.042;8.436;2023-02-02T07:38:58;101084.38;;;6.73;100.00
32109;BME280;18624;50.042;8.436;2023-02-02T07:41:27;101082.81;;;6.75;100.00
32109;BME280;18624;50.042;8.436;2023-02-02T07:43:54;101079.31;;;6.75;100.00
32109;BME280;18624;50.042;8.436;2023-02-02T07:46:20;101084.41;;;6.76;100.00
32109;BME280;18624;50.042;8.436;2023-02-02T07:48:47;101083.63;;;6.76;100.00
32109;BME280;18624;50.042;8.436;2023-02-02T07:51:15;101078.16;;;6.76;100.00
32109;BME280;18624;50.042;8.436;2023-02-02T07:53:47;101092.16;;;6.74;100.00
32109;BME280;18624;50.042;8.436;2023-02-02T07:56:16;101095.28;;;6.76;100.00
32109;BME280;18624;50.042;8.436;2023-02-02T07:58:44;101086.34;;;6.76;100.00
32109;BME280;18624;50.042;8.436;2023-02-02T08:01:13;101085.53;;;6.75;100.00
32109;BME280;18624;50.042;8.436;2023-02-02T08:03:41;101083.22;;;6.77;100.00
32109;BME280;18624;50.042;8.436;2023-02-02T08:08:46;101078.16;;;6.83;100.00
32109;BME280;18624;50.042;8.436;2023-02-02T08:11:15;101083.63;;;6.83;100.00
32109;BME280;18624;50.042;8.436;2023-02-02T08:13:42;101084.03;;;6.85;100.00
32109;BME280;18624;50.042;8.436;2023-02-02T08:16:10;101088.31;;;6.86;100.00
32109;BME280;18624;50.042;8.436;2023-02-02T08:18:37;101081.31;;;6.85;100.00
32109;BME280;18624;50.042;8.436;2023-02-02T08:21:05;101096.88;;;6.84;100.00
32109;BME280;18624;50.042;8.436;2023-02-02T08:23:34;101101.53;;;6.84;100.00
32109;BME280;18624;50.042;8.436;2023-02-02T08:26:21;101092.56;;;6.83;100.00
32109;BME280;18624;50.042;8.436;2023-02-02T08:28:52;101092.22;;;6.85;100.00
32109;BME280;18624;50.042;8.436;2023-02-02T08:31:21;101083.25;;;6.84;100.00
32109;BME280;18624;50.042;8.436;2023-02-02T08:33:49;101089.13;;;6.94;100.00
32109;BME280;18624;50.042;8.436;2023-02-02T08:36:17;101098.06;;;6.94;100.00
32109;BME280;18624;50.042;8.436;2023-02-02T08:38:45;101098.47;;;7.03;100.00
32109;BME280;18624;50.042;8.436;2023-02-02T08:41:13;101103.56;;;7.12;100.00
32109;BME280;18624;50.042;8.436;2023-02-02T08:43:40;101102.78;;;7.22;100.00
32109;BME280;18624;50.042;8.436;2023-02-02T08:46:09;101050.56;;;6.95;100.00
32109;BME280;18624;50.042;8.436;2023-02-02T08:48:37;101100.47;;;7.35;100.00
32109;BME280;18624;50.042;8.436;2023-02-02T08:51:06;101103.97;;;7.43;100.00
32109;BME280;18624;50.042;8.436;2023-02-02T08:53:33;101110.97;;;7.47;100.00
32109;BME280;18624;50.042;8.436;2023-02-02T08:56:03;101114.47;;;7.51;100.00
32109;BME280;18624;50.042;8.436;2023-02-02T08:58:32;101088.38;;;7.32;100.00
32109;BME280;18624;50.042;8.436;2023-02-02T09:01:20;101112.16;;;7.50;100.00
32109;BME280;18624;50.042;8.436;2023-02-02T09:03:47;101128.16;;;7.48;100.00
32109;BME280;18624;50.042;8.436;2023-02-02T09:06:15;101077.44;;;7.15;100.00
32109;BME280;18624;50.042;8.436;2023-02-02T09:08:44;101115.25;;;7.30;100.00
32109;BME280;18624;50.042;8.436;2023-02-02T09:11:13;101037.28;;;6.79;100.00
32109;BME280;18624;50.042;8.436;2023-02-02T09:13:40;101113.31;;;7.38;100.00
32109;BME280;18624;50.042;8.436;2023-02-02T09:16:08;101122.66;;;7.37;100.00
32109;BME280;18624;50.042;8.436;2023-02-02T09:18:35;101127.34;;;7.36;100.00
32109;BME280;18624;50.042;8.436;2023-02-02T09:21:04;101117.22;;;7.37;100.00
32109;BME280;18624;50.042;8.436;2023-02-02T09:23:36;101123.06;;;7.39;100.00
32109;BME280;18624;50.042;8.436;2023-02-02T09:26:17;101118.41;;;7.40;100.00
32109;BME280;18624;50.042;8.436;2023-02-02T09:28:46;101130.06;;;7.40;100.00
32109;BME280;18624;50.042;8.436;2023-02-02T09:31:13;101132.81;;;7.40;100.00
32109;BME280;18624;50.042;8.436;2023-02-02T09:33:40;101126.19;;;7.41;100.00
32109;BME280;18624;50.042;8.436;2023-02-02T09:36:15;101133.59;;;7.44;100.00
32109;BME280;18624;50.042;8.436;2023-02-02T09:38:43;101137.47;;;7.47;100.00
32109;BME280;18624;50.042;8.436;2023-02-02T09:51:11;101156.19;;;7.52;100.00
32109;BME280;18624;50.042;8.436;2023-02-02T09:55:47;101171.00;;;7.51;100.00
32109;BME280;18624;50.042;8.436;2023-02-02T09:58:21;101161.63;;;7.52;100.00
32109;BME280;18624;50.042;8.436;2023-02-02T10:00:57;101161.63;;;7.41;100.00
32109;BME280;18624;50.042;8.436;2023-02-02T10:06:22;101193.22;;;7.49;100.00
32109;BME280;18624;50.042;8.436;2023-02-02T10:08:54;101205.69;;;7.50;100.00
32109;BME280;18624;50.042;8.436;2023-02-02T10:13:55;101219.72;;;7.49;100.00
32109;BME280;18624;50.042;8.436;2023-02-02T10:16:24;101204.91;;;7.50;100.00
32109;BME280;18624;50.042;8.436;2023-02-02T10:19:07;101209.19;;;7.51;100.00
32109;BME280;18624;50.042;8.436;2023-02-02T10:21:53;101213.09;;;7.53;100.00
32109;BME280;18624;50.042;8.436;2023-02-02T10:24:27;101215.03;;;7.56;100.00
32109;BME280;18624;50.042;8.436;2023-02-02T10:26:57;101202.16;;;7.46;100.00
32109;BME280;18624;50.042;8.436;2023-02-02T10:29:56;101163.56;;;7.23;100.00
32109;BME280;18624;50.042;8.436;2023-02-02T10:38:38;101223.63;;;7.58;100.00
32109;BME280;18624;50.042;8.436;2023-02-02T10:41:25;101215.03;;;7.60;100.00
32109;BME280;18624;50.042;8.436;2023-02-02T10:46:56;101214.69;;;7.61;100.00
32109;BME280;18624;50.042;8.436;2023-02-02T10:49:30;101216.63;;;7.57;100.00
32109;BME280;18624;50.042;8.436;2023-02-02T10:52:23;101211.16;;;7.57;100.00
32109;BME280;18624;50.042;8.436;2023-02-02T10:57:52;101217.00;;;7.59;100.00
32109;BME280;18624;50.042;8.436;2023-02-02T11:01:02;101208.00;;;7.52;100.00
32109;BME280;18624;50.042;8.436;2023-02-02T11:03:13;101206.06;;;7.56;100.00
32109;BME280;18624;50.042;8.436;2023-02-02T11:05:41;101196.75;;;7.57;100.00
32109;BME280;18624;50.042;8.436;2023-02-02T11:08:38;101206.88;;;7.60;100.00
32109;BME280;18624;50.042;8.436;2023-02-02T11:11:28;101206.88;;;7.64;100.00
32109;BME280;18624;50.042;8.436;2023-02-02T11:16:26;101210.00;;;7.66;100.00
32109;BME280;18624;50.042;8.436;2023-02-02T11:21:47;101201.78;;;7.55;100.00
32109;BME280;18624;50.042;8.436;2023-02-02T11:29:33;101219.75;;;7.63;100.00
32109;BME280;18624;50.042;8.436;2023-02-02T11:34:44;101161.63;;;7.27;100.00
32109;BME280;18624;50.042;8.436;2023-02-02T11:37:20;101222.09;;;7.61;100.00
32109;BME280;18624;50.042;8.436;2023-02-02T11:39:47;101225.97;;;7.60;100.00
32109;BME280;18624;50.042;8.436;2023-02-02T11:42:14;101221.28;;;7.60;100.00
32109;BME280;18624;50.042;8.436;2023-02-02T11:44:50;101149.50;;;7.14;100.00
32109;BME280;18624;50.042;8.436;2023-02-02T11:47:28;101220.94;;;7.66;100.00
32109;BME280;18624;50.042;8.436;2023-02-02T11:49:57;101140.94;;;7.15;100.00
32109;BME280;18624;50.042;8.436;2023-02-02T11:52:28;101224.41;;;7.70;100.00
32109;BME280;18624;50.042;8.436;2023-02-02T11:55:08;101218.59;;;7.71;100.00
32109;BME280;18624;50.042;8.436;2023-02-02T11:57:40;101219.75;;;7.74;100.00
32109;BME280;18624;50.042;8.436;2023-02-02T12:02:36;101207.28;;;7.80;100.00
32109;BME280;18624;50.042;8.436;2023-02-02T12:07:35;101156.97;;;7.45;100.00
32109;BME280;18624;50.042;8.436;2023-02-02T12:10:18;101212.34;;;7.92;100.00
32109;BME280;18624;50.042;8.436;2023-02-02T12:12:57;101218.22;;;7.94;100.00
32109;BME280;18624;50.042;8.436;2023-02-02T12:21:06;101213.13;;;8.00;100.00
32109;BME280;18624;50.042;8.436;2023-02-02T12:26:39;101211.19;;;8.00;100.00
32109;BME280;18624;50.042;8.436;2023-02-02T12:29:28;101086.44;;;7.26;100.00
32109;BME280;18624;50.042;8.436;2023-02-02T12:37:59;101210.41;;;8.10;100.00
32109;BME280;18624;50.042;8.436;2023-02-02T12:43:15;101211.19;;;8.11;100.00
32109;BME280;18624;50.042;8.436;2023-02-02T12:54:04;101216.66;;;8.07;100.00
32109;BME280;18624;50.042;8.436;2023-02-02T12:57:13;101209.63;;;8.06;100.00
32109;BME280;18624;50.042;8.436;2023-02-02T13:02:53;101204.56;;;8.05;100.00
32109;BME280;18624;50.042;8.436;2023-02-02T13:05:49;101215.09;;;8.06;100.00
32109;BME280;18624;50.042;8.436;2023-02-02T13:08:28;101229.53;;;8.07;100.00
32109;BME280;18624;50.042;8.436;2023-02-02T13:11:19;101226.41;;;8.08;100.00
32109;BME280;18624;50.042;8.436;2023-02-02T13:14:11;101220.16;;;8.08;100.00
32109;BME280;18624;50.042;8.436;2023-02-02T13:16:44;101225.22;;;8.06;100.00
32109;BME280;18624;50.042;8.436;2023-02-02T13:21:46;101231.84;;;8.05;100.00
32109;BME280;18624;50.042;8.436;2023-02-02T13:24:18;101234.56;;;8.05;100.00
32109;BME280;18624;50.042;8.436;2023-02-02T13:26:50;101235.75;;;8.04;100.00
32109;BME280;18624;50.042;8.436;2023-02-02T13:29:32;101240.03;;;8.05;100.00
32109;BME280;18624;50.042;8.436;2023-02-02T13:34:51;101243.94;;;8.04;100.00
32109;BME280;18624;50.042;8.436;2023-02-02T13:40:24;101239.66;;;8.06;100.00
32109;BME280;18624;50.042;8.436;2023-02-02T13:43:31;101233.41;;;8.06;100.00
32109;BME280;18624;50.042;8.436;2023-02-02T13:46:17;101241.59;;;8.09;100.00
32109;BME280;18624;50.042;8.436;2023-02-02T13:51:39;101237.31;;;8.12;100.00
32109;BME280;18624;50.042;8.436;2023-02-02T14:02:41;101237.69;;;8.18;100.00
32109;BME280;18624;50.042;8.436;2023-02-02T14:05:21;101239.66;;;8.21;100.00
32109;BME280;18624;50.042;8.436;2023-02-02T14:07:58;101234.56;;;8.23;100.00
32109;BME280;18624;50.042;8.436;2023-02-02T14:10:31;101245.50;;;8.23;100.00
32109;BME280;18624;50.042;8.436;2023-02-02T14:13:16;101247.47;;;8.26;100.00
32109;BME280;18624;50.042;8.436;2023-02-02T14:16:05;101245.88;;;8.28;100.00
32109;BME280;18624;50.042;8.436;2023-02-02T14:24:00;101261.09;;;8.33;100.00
32109;BME280;18624;50.042;8.436;2023-02-02T14:26:43;101266.19;;;8.31;100.00
32109;BME280;18624;50.042;8.436;2023-02-02T14:34:38;101275.94;;;8.50;100.00
32109;BME280;18624;50.042;8.436;2023-02-02T14:42:40;101291.97;;;8.48;100.00
32109;BME280;18624;50.042;8.436;2023-02-02T14:53:13;101309.13;;;8.41;100.00
32109;BME280;18624;50.042;8.436;2023-02-02T14:58:51;101312.63;;;8.34;100.00
32109;BME280;18624;50.042;8.436;2023-02-02T15:06:41;101322.00;;;8.37;100.00
32109;BME280;18624;50.042;8.436;2023-02-02T15:17:32;101326.66;;;8.33;100.00
32109;BME280;18624;50.042;8.436;2023-02-02T15:20:09;101318.47;;;8.29;100.00
32109;BME280;18624;50.042;8.436;2023-02-02T15:25:26;101332.91;;;8.26;100.00
32109;BME280;18624;50.042;8.436;2023-02-02T15:28:06;101255.63;;;7.76;100.00
32109;BME280;18624;50.042;8.436;2023-02-02T15:30:35;101304.00;;;8.00;100.00
32109;BME280;18624;50.042;8.436;2023-02-02T15:33:19;101343.81;;;8.23;100.00
32109;BME280;18624;50.042;8.436;2023-02-02T15:35:48;101346.56;;;8.23;100.00
32109;BME280;18624;50.042;8.436;2023-02-02T15:38:16;101351.63;;;8.21;100.00
32109;BME280;18624;50.042;8.436;2023-02-02T15:40:45;101350.47;;;8.22;100.00
32109;BME280;18624;50.042;8.436;2023-02-02T15:43:12;101359.06;;;8.20;100.00
32109;BME280;18624;50.042;8.436;2023-02-02T15:45:46;101347.34;;;8.20;100.00
32109;BME280;18624;50.042;8.436;2023-02-02T15:48:25;101344.22;;;8.18;100.00
32109;BME280;18624;50.042;8.436;2023-02-02T15:50:58;101332.50;;;8.13;100.00